sensor_id;sensor_type;location;lat;lon;timestamp;temperature;humidity
53274;DHT22;39163;52.696;6.758;2022-07-10T10:56:43;17.70;99.90
53274;DHT22;39163;52.696;6.758;2022-07-10T10:59:46;17.70;99.90
53274;DHT22;39163;52.696;6.758;2022-07-10T11:02:25;17.90;99.90
53274;DHT22;39163;52.696;6.758;2022-07-10T11:14:51;17.90;99.90
53274;DHT22;39163;52.696;6.758;2022-07-10T11:17:30;17.80;99.90
53274;DHT22;39163;52.696;6.758;2022-07-10T15:34:25;19.80;99.90
53274;DHT22;39163;52.696;6.758;2022-07-10T15:45:14;20.10;99.90
53274;DHT22;39163;52.696;6.758;2022-07-10T16:00:28;20.00;99.90
53274;DHT22;39163;52.696;6.758;2022-07-10T16:02:57;19.90;99.90
53274;DHT22;39163;52.696;6.758;2022-07-10T16:05:26;19.80;99.90
53274;DHT22;39163;52.696;6.758;2022-07-10T16:07:55;19.70;99.90
53274;DHT22;39163;52.696;6.758;2022-07-10T16:10:21;19.70;99.90
53274;DHT22;39163;52.696;6.758;2022-07-10T16:12:47;19.60;99.90
53274;DHT22;39163;52.696;6.758;2022-07-10T16:15:15;19.60;99.90
53274;DHT22;39163;52.696;6.758;2022-07-10T16:17:41;19.70;99.90
53274;DHT22;39163;52.696;6.758;2022-07-10T16:20:14;19.70;99.90
53274;DHT22;39163;52.696;6.758;2022-07-10T16:33:04;19.90;99.90
53274;DHT22;39163;52.696;6.758;2022-07-10T16:35:32;20.00;99.90
53274;DHT22;39163;52.696;6.758;2022-07-10T16:37:58;20.00;99.90
53274;DHT22;39163;52.696;6.758;2022-07-10T16:40:43;20.00;99.90
53274;DHT22;39163;52.696;6.758;2022-07-10T16:43:12;19.90;99.90
53274;DHT22;39163;52.696;6.758;2022-07-10T16:45:45;19.90;99.90
53274;DHT22;39163;52.696;6.758;2022-07-10T16:48:13;19.90;99.90
53274;DHT22;39163;52.696;6.758;2022-07-10T16:50:42;19.80;99.90
53274;DHT22;39163;52.696;6.758;2022-07-10T16:56:03;19.70;99.90
53274;DHT22;39163;52.696;6.758;2022-07-10T16:58:36;19.60;99.90
53274;DHT22;39163;52.696;6.758;2022-07-10T23:16:59;16.60;99.90
53274;DHT22;39163;52.696;6.758;2022-07-10T23:20:14;16.60;99.90
53274;DHT22;39163;52.696;6.758;2022-07-10T23:22:49;16.60;99.90
53274;DHT22;39163;52.696;6.758;2022-07-10T23:25:26;16.60;99.90
53274;DHT22;39163;52.696;6.758;2022-07-10T23:27:59;16.60;99.90
53274;DHT22;39163;52.696;6.758;2022-07-10T23:30:27;16.60;99.90
53274;DHT22;39163;52.696;6.758;2022-07-10T23:33:12;16.60;99.90
53274;DHT22;39163;52.696;6.758;2022-07-10T23:36:09;16.60;99.90
53274;DHT22;39163;52.696;6.758;2022-07-10T23:38:37;16.60;99.90
53274;DHT22;39163;52.696;6.758;2022-07-10T23:41:03;16.60;99.90
53274;DHT22;39163;52.696;6.758;2022-07-10T23:43:31;16.50;99.90
53274;DHT22;39163;52.696;6.758;2022-07-10T23:45:56;16.50;99.90
53274;DHT22;39163;52.696;6.758;2022-07-10T23:48:25;16.50;99.90
53274;DHT22;39163;52.696;6.758;2022-07-10T23:51:09;16.50;99.90
53274;DHT22;39163;52.696;6.758;2022-07-10T23:53:35;16.50;99.90
53274;DHT22;39163;52.696;6.758;2022-07-10T23:56:01;16.50;99.90
53274;DHT22;39163;52.696;6.758;2022-07-10T23:58:27;16.50;99.90
